Caleb J. Eymard — WDC8180 — position and weather

sailwx.info

Track history (hours):
 
Tides and Currents Weather Stations Pressure Air Temp Water Temp Dewpoint Dewpoint Depression Visibility Wind Speed Wind Dir Waves Ship Positions

Caleb J. Eymard

Owner: Eymard Brothers Towing Company, Inc., Marrero, LA. More information available from US FCC via Universal Licensing System and Coast Guard Vessel Documentation Center.

Last reported at 2018-Jan-19 01:39 UTC. Time now 2018-Jan-19 08:01 UTC.
Position N 29°43' W 095°01'.

Length 20 m; draft 3 m.

Type: Towing. MMSI: 367082880.

Date/timePositionNaut miles runAvg speedWind from/ knotsBaromVisibWave heightAir tempDewpointWater temp
2018-Jan-19 01:39N 29°43' W 095°01'2 6.7
2018-Jan-19 01:23N 29°42' W 094°60'2 4.4
2018-Jan-19 00:59N 29°41' W 094°58'2 3.5
2018-Jan-19 00:23N 29°41' W 094°55'  
2018-Jan-12 05:06N 29°44' W 095°09'2 5.7
2018-Jan-12 04:46N 29°44' W 095°07'2 1.1
2018-Jan-12 02:43N 29°46' W 095°04'1 6.6
2018-Jan-12 02:30N 29°45' W 095°04'3 5.8
2018-Jan-12 02:00N 29°42' W 095°01'3 5.5
2018-Jan-12 01:30N 29°41' W 094°58'2 4.8
2018-Jan-12 01:00N 29°41' W 094°55'1 1.8
2018-Jan-12 00:28N 29°42' W 094°55'0 0.0
2018-Jan-11 23:56N 29°42' W 094°55'0 0.0
2018-Jan-11 23:27N 29°42' W 094°55'1 2.9
2018-Jan-11 23:00N 29°43' W 094°56'0 0.0
2018-Jan-11 21:26N 29°43' W 094°56'1 2.2
2018-Jan-11 21:00N 29°42' W 094°56'0 0.6
2018-Jan-11 20:24N 29°42' W 094°55'1 3.5
2018-Jan-11 20:00N 29°40' W 094°56'2 3.7
2018-Jan-11 19:30N 29°41' W 094°58'2 4.0
2018-Jan-11 19:00N 29°41' W 094°60'0 0.0
2018-Jan-11 18:30N 29°41' W 094°60'0 0.0
2018-Jan-11 18:01N 29°41' W 094°60'0 0.0
2018-Jan-11 17:28N 29°41' W 094°60'0 0.0
2018-Jan-11 17:00N 29°41' W 094°60'0 0.0
2018-Jan-11 16:30N 29°41' W 094°60'0 0.0
2018-Jan-11 16:00N 29°41' W 094°60'0 0.0
2018-Jan-11 15:30N 29°41' W 094°60'0 0.0
2018-Jan-11 15:00N 29°41' W 094°60'0 0.0
2018-Jan-11 14:30N 29°41' W 094°60'0 0.0
2018-Jan-11 14:00N 29°41' W 094°60'0 0.0
2018-Jan-11 13:31N 29°41' W 094°60'0 0.0
2018-Jan-11 13:00N 29°41' W 094°60'0 0.0
2018-Jan-11 12:30N 29°41' W 094°60'0 0.0
2018-Jan-11 12:00N 29°41' W 094°60'0 0.0
2018-Jan-11 11:30N 29°41' W 094°60'0 0.6
2018-Jan-11 11:00N 29°41' W 094°60'3 4.3
2018-Jan-11 10:16N 29°40' W 094°56'1 3.9
2018-Jan-11 10:00N 29°41' W 094°55'1 1.6
2018-Jan-11 09:30N 29°42' W 094°55'1 2.6
2018-Jan-11 09:00N 29°43' W 094°56'0 0.5
2018-Jan-11 08:30N 29°43' W 094°56'2 1.9
2018-Jan-11 07:40N 29°42' W 094°55'0 2.5
2018-Jan-11 07:29N 29°41' W 094°55'1 2.5
2018-Jan-11 07:00N 29°40' W 094°56'2 3.3
2018-Jan-11 06:30N 29°41' W 094°58'2 3.1
2018-Jan-11 06:00N 29°42' W 094°60'2 4.7
2018-Jan-11 05:30N 29°44' W 095°01'2 5.0
2018-Jan-11 05:00N 29°45' W 095°04'2 3.7
2018-Jan-11 04:22N 29°44' W 095°07'2 5.1
2018-Jan-11 03:57N 29°44' W 095°09'2 3.6
2018-Jan-11 03:26N 29°45' W 095°11'0 0.0
2018-Jan-11 03:00N 29°45' W 095°11'0 0.0
2018-Jan-11 02:29N 29°45' W 095°11'1 0.1
2018-Jan-10 15:33N 29°45' W 095°10'1 6.2
2018-Jan-10 15:22N 29°44' W 095°09'5 4.9
2018-Jan-10 14:24N 29°44' W 095°03'2 5.8
2018-Jan-10 14:00N 29°43' W 095°01'3 5.5
2018-Jan-10 13:30N 29°41' W 094°59'2 4.2
2018-Jan-10 12:59N 29°41' W 094°57'2 3.6
2018-Jan-10 12:29N 29°42' W 094°55'0 0.0
2018-Jan-10 12:00N 29°42' W 094°55'0 0.0
2018-Jan-10 11:30N 29°42' W 094°55'0 0.0
2018-Jan-10 10:59N 29°42' W 094°55'0 0.0
2018-Jan-10 10:25N 29°42' W 094°55'0 0.0
2018-Jan-10 10:00N 29°42' W 094°55'0 0.0
2018-Jan-10 09:29N 29°42' W 094°55'0 0.0
2018-Jan-10 09:00N 29°42' W 094°55'0 0.0
2018-Jan-10 08:29N 29°42' W 094°55'0 0.0
2018-Jan-10 07:59N 29°42' W 094°55'0 0.0
2018-Jan-10 07:30N 29°42' W 094°55'0 0.0
2018-Jan-10 07:00N 29°42' W 094°55'0 0.0
2018-Jan-10 06:30N 29°42' W 094°55'0 0.0
2018-Jan-10 06:00N 29°42' W 094°55'0 0.0
2018-Jan-10 05:30N 29°42' W 094°55'0 0.0
2018-Jan-10 04:59N 29°42' W 094°55'0 0.0
2018-Jan-10 04:30N 29°42' W 094°55'0 0.0
2018-Jan-10 03:58N 29°42' W 094°55'0 0.0
2018-Jan-10 03:26N 29°42' W 094°55'0 0.0
2018-Jan-10 03:00N 29°42' W 094°55'0 0.0
2018-Jan-10 02:29N 29°42' W 094°55'0 0.0
2018-Jan-10 02:00N 29°42' W 094°55'0 0.0
2018-Jan-10 01:30N 29°42' W 094°55'0 0.0
2018-Jan-10 01:00N 29°42' W 094°55'0 0.0
2018-Jan-10 00:29N 29°42' W 094°55'0 0.0
2018-Jan-10 00:00N 29°42' W 094°55'0 0.0
2018-Jan-09 23:30N 29°42' W 094°55'1 2.4
2018-Jan-09 23:00N 29°41' W 094°56'2 4.8
2018-Jan-09 22:30N 29°41' W 094°58'0 0.1
2018-Jan-09 18:28N 29°41' W 094°59'0 0.0
2018-Jan-09 17:56N 29°41' W 094°59'0 0.0
2018-Jan-09 17:29N 29°41' W 094°59'0 0.1
2018-Jan-09 17:00N 29°41' W 094°59'0 0.1
2018-Jan-09 16:28N 29°41' W 094°59'0 0.2
2018-Jan-09 15:58N 29°41' W 094°59'3 7.3
2018-Jan-09 15:30N 29°44' W 095°02'4 7.4
2018-Jan-09 15:00N 29°46' W 095°05'4 7.1
2018-Jan-09 14:30N 29°44' W 095°09'2 0.2
2018-Jan-09 05:26N 29°45' W 095°11'  
Track history (hours):
 
Tides and Currents Weather Stations Pressure Air Temp Water Temp Dewpoint Dewpoint Depression Visibility Wind Speed Wind Dir Waves Ship Positions

Caleb J. Eymard

Owner: Eymard Brothers Towing Company, Inc., Marrero, LA. More information available from US FCC via Universal Licensing System and Coast Guard Vessel Documentation Center.

Last reported at 2018-Jan-19 01:39 UTC. Time now 2018-Jan-19 08:01 UTC.
Position N 29°43' W 095°01'.

Length 20 m; draft 3 m.

Type: Towing. MMSI: 367082880.

Date/timePositionNaut miles runAvg speedWind from/ knotsBaromVisibWave heightAir tempDewpointWater temp
2018-Jan-19 01:39N 29°43' W 095°01'2 6.7
2018-Jan-19 01:23N 29°42' W 094°60'2 4.4
2018-Jan-19 00:59N 29°41' W 094°58'2 3.5
2018-Jan-19 00:23N 29°41' W 094°55'  
2018-Jan-12 05:06N 29°44' W 095°09'2 5.7
2018-Jan-12 04:46N 29°44' W 095°07'2 1.1
2018-Jan-12 02:43N 29°46' W 095°04'1 6.6
2018-Jan-12 02:30N 29°45' W 095°04'3 5.8
2018-Jan-12 02:00N 29°42' W 095°01'3 5.5
2018-Jan-12 01:30N 29°41' W 094°58'2 4.8
2018-Jan-12 01:00N 29°41' W 094°55'1 1.8
2018-Jan-12 00:28N 29°42' W 094°55'0 0.0
2018-Jan-11 23:56N 29°42' W 094°55'0 0.0
2018-Jan-11 23:27N 29°42' W 094°55'1 2.9
2018-Jan-11 23:00N 29°43' W 094°56'0 0.0
2018-Jan-11 21:26N 29°43' W 094°56'1 2.2
2018-Jan-11 21:00N 29°42' W 094°56'0 0.6
2018-Jan-11 20:24N 29°42' W 094°55'1 3.5
2018-Jan-11 20:00N 29°40' W 094°56'2 3.7
2018-Jan-11 19:30N 29°41' W 094°58'2 4.0
2018-Jan-11 19:00N 29°41' W 094°60'0 0.0
2018-Jan-11 18:30N 29°41' W 094°60'0 0.0
2018-Jan-11 18:01N 29°41' W 094°60'0 0.0
2018-Jan-11 17:28N 29°41' W 094°60'0 0.0
2018-Jan-11 17:00N 29°41' W 094°60'0 0.0
2018-Jan-11 16:30N 29°41' W 094°60'0 0.0
2018-Jan-11 16:00N 29°41' W 094°60'0 0.0
2018-Jan-11 15:30N 29°41' W 094°60'0 0.0
2018-Jan-11 15:00N 29°41' W 094°60'0 0.0
2018-Jan-11 14:30N 29°41' W 094°60'0 0.0
2018-Jan-11 14:00N 29°41' W 094°60'0 0.0
2018-Jan-11 13:31N 29°41' W 094°60'0 0.0
2018-Jan-11 13:00N 29°41' W 094°60'0 0.0
2018-Jan-11 12:30N 29°41' W 094°60'0 0.0
2018-Jan-11 12:00N 29°41' W 094°60'0 0.0
2018-Jan-11 11:30N 29°41' W 094°60'0 0.6
2018-Jan-11 11:00N 29°41' W 094°60'3 4.3
2018-Jan-11 10:16N 29°40' W 094°56'1 3.9
2018-Jan-11 10:00N 29°41' W 094°55'1 1.6
2018-Jan-11 09:30N 29°42' W 094°55'1 2.6
2018-Jan-11 09:00N 29°43' W 094°56'0 0.5
2018-Jan-11 08:30N 29°43' W 094°56'2 1.9
2018-Jan-11 07:40N 29°42' W 094°55'0 2.5
2018-Jan-11 07:29N 29°41' W 094°55'1 2.5
2018-Jan-11 07:00N 29°40' W 094°56'2 3.3
2018-Jan-11 06:30N 29°41' W 094°58'2 3.1
2018-Jan-11 06:00N 29°42' W 094°60'2 4.7
2018-Jan-11 05:30N 29°44' W 095°01'2 5.0
2018-Jan-11 05:00N 29°45' W 095°04'2 3.7
2018-Jan-11 04:22N 29°44' W 095°07'2 5.1
2018-Jan-11 03:57N 29°44' W 095°09'2 3.6
2018-Jan-11 03:26N 29°45' W 095°11'0 0.0
2018-Jan-11 03:00N 29°45' W 095°11'0 0.0
2018-Jan-11 02:29N 29°45' W 095°11'1 0.1
2018-Jan-10 15:33N 29°45' W 095°10'1 6.2
2018-Jan-10 15:22N 29°44' W 095°09'5 4.9
2018-Jan-10 14:24N 29°44' W 095°03'2 5.8
2018-Jan-10 14:00N 29°43' W 095°01'3 5.5
2018-Jan-10 13:30N 29°41' W 094°59'2 4.2
2018-Jan-10 12:59N 29°41' W 094°57'2 3.6
2018-Jan-10 12:29N 29°42' W 094°55'0 0.0
2018-Jan-10 12:00N 29°42' W 094°55'0 0.0
2018-Jan-10 11:30N 29°42' W 094°55'0 0.0
2018-Jan-10 10:59N 29°42' W 094°55'0 0.0
2018-Jan-10 10:25N 29°42' W 094°55'0 0.0
2018-Jan-10 10:00N 29°42' W 094°55'0 0.0
2018-Jan-10 09:29N 29°42' W 094°55'0 0.0
2018-Jan-10 09:00N 29°42' W 094°55'0 0.0
2018-Jan-10 08:29N 29°42' W 094°55'0 0.0
2018-Jan-10 07:59N 29°42' W 094°55'0 0.0
2018-Jan-10 07:30N 29°42' W 094°55'0 0.0
2018-Jan-10 07:00N 29°42' W 094°55'0 0.0
2018-Jan-10 06:30N 29°42' W 094°55'0 0.0
2018-Jan-10 06:00N 29°42' W 094°55'0 0.0
2018-Jan-10 05:30N 29°42' W 094°55'0 0.0
2018-Jan-10 04:59N 29°42' W 094°55'0 0.0
2018-Jan-10 04:30N 29°42' W 094°55'0 0.0
2018-Jan-10 03:58N 29°42' W 094°55'0 0.0
2018-Jan-10 03:26N 29°42' W 094°55'0 0.0
2018-Jan-10 03:00N 29°42' W 094°55'0 0.0
2018-Jan-10 02:29N 29°42' W 094°55'0 0.0
2018-Jan-10 02:00N 29°42' W 094°55'0 0.0
2018-Jan-10 01:30N 29°42' W 094°55'0 0.0
2018-Jan-10 01:00N 29°42' W 094°55'0 0.0
2018-Jan-10 00:29N 29°42' W 094°55'0 0.0
2018-Jan-10 00:00N 29°42' W 094°55'0 0.0
2018-Jan-09 23:30N 29°42' W 094°55'1 2.4
2018-Jan-09 23:00N 29°41' W 094°56'2 4.8
2018-Jan-09 22:30N 29°41' W 094°58'0 0.1
2018-Jan-09 18:28N 29°41' W 094°59'0 0.0
2018-Jan-09 17:56N 29°41' W 094°59'0 0.0
2018-Jan-09 17:29N 29°41' W 094°59'0 0.1
2018-Jan-09 17:00N 29°41' W 094°59'0 0.1
2018-Jan-09 16:28N 29°41' W 094°59'0 0.2
2018-Jan-09 15:58N 29°41' W 094°59'3 7.3
2018-Jan-09 15:30N 29°44' W 095°02'4 7.4
2018-Jan-09 15:00N 29°46' W 095°05'4 7.1
2018-Jan-09 14:30N 29°44' W 095°09'2 0.2
2018-Jan-09 05:26N 29°45' W 095°11'  

Dump ship's entire track history